sensor_id;sensor_type;location;lat;lon;timestamp;pressure;altitude;pressure_sealevel;temperature;humidity
71638;BME280;59485;43.542;-5.676;2023-03-16T00:00:01;101005.97;;;10.98;100.00
71638;BME280;59485;43.542;-5.676;2023-03-16T00:02:27;100990.38;;;10.98;100.00
71638;BME280;59485;43.542;-5.676;2023-03-16T00:04:53;100997.06;;;10.96;100.00
71638;BME280;59485;43.542;-5.676;2023-03-16T00:07:19;100986.47;;;10.93;100.00
71638;BME280;59485;43.542;-5.676;2023-03-16T00:09:45;100975.72;;;10.91;100.00
71638;BME280;59485;43.542;-5.676;2023-03-16T00:12:12;100964.94;;;10.89;100.00
71638;BME280;59485;43.542;-5.676;2023-03-16T00:14:40;100949.50;;;10.88;100.00
71638;BME280;59485;43.542;-5.676;2023-03-16T00:19:34;100920.09;;;10.82;100.00
71638;BME280;59485;43.542;-5.676;2023-03-16T00:24:25;100926.81;;;10.80;100.00
71638;BME280;59485;43.542;-5.676;2023-03-16T00:26:50;100935.22;;;10.78;100.00
71638;BME280;59485;43.542;-5.676;2023-03-16T00:29:25;100941.06;;;10.75;100.00
71638;BME280;59485;43.542;-5.676;2023-03-16T00:31:59;100924.16;;;10.72;100.00
71638;BME280;59485;43.542;-5.676;2023-03-16T00:34:24;100927.75;;;10.72;100.00
71638;BME280;59485;43.542;-5.676;2023-03-16T00:36:53;100934.09;;;10.73;100.00
71638;BME280;59485;43.542;-5.676;2023-03-16T00:39:19;100930.50;;;10.72;100.00
71638;BME280;59485;43.542;-5.676;2023-03-16T00:41:53;100930.09;;;10.75;100.00
71638;BME280;59485;43.542;-5.676;2023-03-16T00:44:22;100930.19;;;10.67;100.00
71638;BME280;59485;43.542;-5.676;2023-03-16T00:46:48;100929.91;;;10.62;100.00
71638;BME280;59485;43.542;-5.676;2023-03-16T00:49:13;100921.09;;;10.67;100.00
71638;BME280;59485;43.542;-5.676;2023-03-16T00:51:38;100913.47;;;10.62;100.00
71638;BME280;59485;43.542;-5.676;2023-03-16T00:54:04;100908.34;;;10.59;100.00
71638;BME280;59485;43.542;-5.676;2023-03-16T00:56:29;100906.63;;;10.58;100.00
71638;BME280;59485;43.542;-5.676;2023-03-16T00:58:55;100903.91;;;10.58;100.00
71638;BME280;59485;43.542;-5.676;2023-03-16T01:01:21;100891.22;;;10.57;100.00
71638;BME280;59485;43.542;-5.676;2023-03-16T01:03:47;100890.59;;;10.55;100.00
71638;BME280;59485;43.542;-5.676;2023-03-16T01:06:14;100880.66;;;10.54;100.00
71638;BME280;59485;43.542;-5.676;2023-03-16T01:08:41;100888.22;;;10.52;100.00
71638;BME280;59485;43.542;-5.676;2023-03-16T01:11:11;100885.38;;;10.45;100.00
71638;BME280;59485;43.542;-5.676;2023-03-16T01:13:37;100885.56;;;10.44;100.00
71638;BME280;59485;43.542;-5.676;2023-03-16T01:16:02;100883.56;;;10.38;100.00
71638;BME280;59485;43.542;-5.676;2023-03-16T01:18:28;100880.84;;;10.38;100.00
71638;BME280;59485;43.542;-5.676;2023-03-16T01:20:53;100882.81;;;10.44;100.00
71638;BME280;59485;43.542;-5.676;2023-03-16T01:23:34;100872.03;;;10.42;100.00
71638;BME280;59485;43.542;-5.676;2023-03-16T01:26:00;100865.44;;;10.37;100.00
71638;BME280;59485;43.542;-5.676;2023-03-16T01:31:05;100888.81;;;10.25;100.00
71638;BME280;59485;43.542;-5.676;2023-03-16T01:33:31;100894.66;;;10.22;100.00
71638;BME280;59485;43.542;-5.676;2023-03-16T01:35:58;100886.25;;;10.23;100.00
71638;BME280;59485;43.542;-5.676;2023-03-16T01:38:24;100881.28;;;10.27;100.00
71638;BME280;59485;43.542;-5.676;2023-03-16T01:40:50;100871.19;;;10.27;100.00
71638;BME280;59485;43.542;-5.676;2023-03-16T01:43:20;100879.09;;;10.22;100.00
71638;BME280;59485;43.542;-5.676;2023-03-16T01:51:22;100846.22;;;9.99;100.00
71638;BME280;59485;43.542;-5.676;2023-03-16T01:53:50;100838.38;;;9.96;100.00
71638;BME280;59485;43.542;-5.676;2023-03-16T01:56:17;100844.03;;;9.95;100.00
71638;BME280;59485;43.542;-5.676;2023-03-16T01:58:44;100858.66;;;9.87;100.00
71638;BME280;59485;43.542;-5.676;2023-03-16T02:03:35;100868.94;;;9.85;100.00
71638;BME280;59485;43.542;-5.676;2023-03-16T02:06:01;100848.09;;;9.84;100.00
71638;BME280;59485;43.542;-5.676;2023-03-16T02:08:28;100831.09;;;9.89;100.00
71638;BME280;59485;43.542;-5.676;2023-03-16T02:10:56;100840.13;;;9.74;100.00
71638;BME280;59485;43.542;-5.676;2023-03-16T02:13:23;100829.03;;;9.68;100.00
71638;BME280;59485;43.542;-5.676;2023-03-16T02:15:53;100826.53;;;9.58;100.00
71638;BME280;59485;43.542;-5.676;2023-03-16T02:18:19;100839.38;;;9.58;100.00
71638;BME280;59485;43.542;-5.676;2023-03-16T02:23:12;100812.06;;;9.50;100.00
71638;BME280;59485;43.542;-5.676;2023-03-16T02:31:12;100813.66;;;9.44;100.00
71638;BME280;59485;43.542;-5.676;2023-03-16T02:33:37;100811.44;;;9.48;100.00
71638;BME280;59485;43.542;-5.676;2023-03-16T02:36:03;100805.16;;;9.39;100.00
71638;BME280;59485;43.542;-5.676;2023-03-16T02:38:29;100801.81;;;9.29;100.00
71638;BME280;59485;43.542;-5.676;2023-03-16T02:40:58;100802.41;;;9.16;100.00
71638;BME280;59485;43.542;-5.676;2023-03-16T02:43:27;100801.19;;;9.19;100.00
71638;BME280;59485;43.542;-5.676;2023-03-16T02:45:54;100805.13;;;9.16;100.00
71638;BME280;59485;43.542;-5.676;2023-03-16T02:50:46;100798.81;;;9.16;100.00
71638;BME280;59485;43.542;-5.676;2023-03-16T02:53:12;100794.88;;;9.18;100.00
71638;BME280;59485;43.542;-5.676;2023-03-16T02:55:38;100789.88;;;9.22;100.00
71638;BME280;59485;43.542;-5.676;2023-03-16T02:58:03;100785.06;;;9.24;100.00
71638;BME280;59485;43.542;-5.676;2023-03-16T03:00:29;100780.97;;;9.28;100.00
71638;BME280;59485;43.542;-5.676;2023-03-16T03:02:54;100774.63;;;9.27;100.00
71638;BME280;59485;43.542;-5.676;2023-03-16T03:07:45;100779.44;;;9.25;100.00
71638;BME280;59485;43.542;-5.676;2023-03-16T03:10:10;100772.25;;;9.24;100.00
71638;BME280;59485;43.542;-5.676;2023-03-16T03:12:35;100754.13;;;9.23;100.00
71638;BME280;59485;43.542;-5.676;2023-03-16T03:15:01;100750.88;;;9.28;100.00
71638;BME280;59485;43.542;-5.676;2023-03-16T03:17:26;100756.53;;;9.26;100.00
71638;BME280;59485;43.542;-5.676;2023-03-16T03:19:54;100758.59;;;9.24;100.00
71638;BME280;59485;43.542;-5.676;2023-03-16T03:22:20;100760.09;;;9.27;100.00
71638;BME280;59485;43.542;-5.676;2023-03-16T03:24:45;100751.34;;;9.31;100.00
71638;BME280;59485;43.542;-5.676;2023-03-16T03:27:10;100754.06;;;9.31;100.00
71638;BME280;59485;43.542;-5.676;2023-03-16T03:29:36;100754.75;;;9.33;100.00
71638;BME280;59485;43.542;-5.676;2023-03-16T03:32:02;100742.44;;;9.37;100.00
71638;BME280;59485;43.542;-5.676;2023-03-16T03:34:28;100752.34;;;9.38;100.00
71638;BME280;59485;43.542;-5.676;2023-03-16T03:36:54;100735.53;;;9.41;100.00
71638;BME280;59485;43.542;-5.676;2023-03-16T03:39:19;100742.59;;;9.36;100.00
71638;BME280;59485;43.542;-5.676;2023-03-16T03:41:44;100734.03;;;9.39;100.00
71638;BME280;59485;43.542;-5.676;2023-03-16T03:44:10;100739.13;;;9.42;100.00
71638;BME280;59485;43.542;-5.676;2023-03-16T03:46:35;100740.22;;;9.33;100.00
71638;BME280;59485;43.542;-5.676;2023-03-16T03:49:00;100733.72;;;9.34;100.00
71638;BME280;59485;43.542;-5.676;2023-03-16T03:51:29;100737.41;;;9.41;100.00
71638;BME280;59485;43.542;-5.676;2023-03-16T03:53:55;100738.84;;;9.37;100.00
71638;BME280;59485;43.542;-5.676;2023-03-16T03:56:21;100749.94;;;9.35;100.00
71638;BME280;59485;43.542;-5.676;2023-03-16T03:58:46;100750.31;;;9.32;100.00
71638;BME280;59485;43.542;-5.676;2023-03-16T04:01:12;100738.06;;;9.28;100.00
71638;BME280;59485;43.542;-5.676;2023-03-16T04:03:37;100727.81;;;9.22;100.00
71638;BME280;59485;43.542;-5.676;2023-03-16T04:06:02;100731.97;;;9.18;100.00
71638;BME280;59485;43.542;-5.676;2023-03-16T04:10:53;100721.03;;;9.18;100.00
71638;BME280;59485;43.542;-5.676;2023-03-16T04:13:18;100723.03;;;9.24;100.00
71638;BME280;59485;43.542;-5.676;2023-03-16T04:15:43;100716.53;;;9.25;100.00
71638;BME280;59485;43.542;-5.676;2023-03-16T04:18:11;100715.31;;;9.28;100.00
71638;BME280;59485;43.542;-5.676;2023-03-16T04:20:37;100715.59;;;9.33;100.00
71638;BME280;59485;43.542;-5.676;2023-03-16T04:23:02;100714.09;;;9.30;100.00
71638;BME280;59485;43.542;-5.676;2023-03-16T04:25:29;100701.06;;;9.32;100.00
71638;BME280;59485;43.542;-5.676;2023-03-16T04:27:57;100714.75;;;9.32;100.00
71638;BME280;59485;43.542;-5.676;2023-03-16T04:30:23;100709.66;;;9.29;100.00
71638;BME280;59485;43.542;-5.676;2023-03-16T04:32:48;100713.38;;;9.36;100.00
71638;BME280;59485;43.542;-5.676;2023-03-16T04:35:28;100704.00;;;9.31;100.00
71638;BME280;59485;43.542;-5.676;2023-03-16T04:38:00;100699.38;;;9.31;100.00
71638;BME280;59485;43.542;-5.676;2023-03-16T04:42:57;100687.56;;;9.31;100.00
71638;BME280;59485;43.542;-5.676;2023-03-16T04:45:22;100677.88;;;9.28;100.00
71638;BME280;59485;43.542;-5.676;2023-03-16T04:47:48;100661.75;;;9.33;100.00
71638;BME280;59485;43.542;-5.676;2023-03-16T04:50:23;100658.56;;;9.30;100.00
71638;BME280;59485;43.542;-5.676;2023-03-16T04:52:49;100655.50;;;9.25;100.00
71638;BME280;59485;43.542;-5.676;2023-03-16T04:55:15;100668.16;;;9.26;100.00
71638;BME280;59485;43.542;-5.676;2023-03-16T05:00:06;100650.38;;;9.22;100.00
71638;BME280;59485;43.542;-5.676;2023-03-16T05:02:43;100656.25;;;9.19;100.00
71638;BME280;59485;43.542;-5.676;2023-03-16T05:05:08;100650.59;;;9.20;100.00
71638;BME280;59485;43.542;-5.676;2023-03-16T05:07:33;100650.97;;;9.17;100.00
71638;BME280;59485;43.542;-5.676;2023-03-16T05:09:59;100635.31;;;9.11;100.00
71638;BME280;59485;43.542;-5.676;2023-03-16T05:12:24;100631.53;;;9.12;100.00
71638;BME280;59485;43.542;-5.676;2023-03-16T05:14:49;100645.06;;;9.06;100.00
71638;BME280;59485;43.542;-5.676;2023-03-16T05:17:15;100628.50;;;9.07;100.00
71638;BME280;59485;43.542;-5.676;2023-03-16T05:22:05;100624.53;;;9.10;100.00
71638;BME280;59485;43.542;-5.676;2023-03-16T05:24:31;100632.56;;;9.11;100.00
71638;BME280;59485;43.542;-5.676;2023-03-16T05:26:56;100621.88;;;9.01;100.00
71638;BME280;59485;43.542;-5.676;2023-03-16T05:29:31;100634.13;;;9.06;100.00
71638;BME280;59485;43.542;-5.676;2023-03-16T05:32:09;100625.47;;;9.02;100.00
71638;BME280;59485;43.542;-5.676;2023-03-16T05:34:34;100630.25;;;9.00;100.00
71638;BME280;59485;43.542;-5.676;2023-03-16T05:36:59;100616.59;;;9.00;100.00
71638;BME280;59485;43.542;-5.676;2023-03-16T05:39:37;100622.75;;;9.02;100.00
71638;BME280;59485;43.542;-5.676;2023-03-16T05:42:03;100618.41;;;9.08;100.00
71638;BME280;59485;43.542;-5.676;2023-03-16T05:44:30;100608.59;;;9.13;100.00
71638;BME280;59485;43.542;-5.676;2023-03-16T05:46:55;100607.75;;;9.13;100.00
71638;BME280;59485;43.542;-5.676;2023-03-16T05:49:21;100627.38;;;9.16;100.00
71638;BME280;59485;43.542;-5.676;2023-03-16T05:51:57;100619.66;;;9.20;100.00
71638;BME280;59485;43.542;-5.676;2023-03-16T05:54:29;100621.38;;;9.21;100.00
71638;BME280;59485;43.542;-5.676;2023-03-16T05:56:54;100614.66;;;9.23;100.00
71638;BME280;59485;43.542;-5.676;2023-03-16T05:59:20;100614.28;;;9.26;100.00
71638;BME280;59485;43.542;-5.676;2023-03-16T06:01:45;100615.63;;;9.30;100.00
71638;BME280;59485;43.542;-5.676;2023-03-16T06:04:10;100609.97;;;9.32;100.00
71638;BME280;59485;43.542;-5.676;2023-03-16T06:06:36;100617.63;;;9.36;100.00
71638;BME280;59485;43.542;-5.676;2023-03-16T06:09:02;100618.66;;;9.35;100.00
71638;BME280;59485;43.542;-5.676;2023-03-16T06:11:27;100606.09;;;9.41;100.00
71638;BME280;59485;43.542;-5.676;2023-03-16T06:13:52;100609.16;;;9.46;100.00
71638;BME280;59485;43.542;-5.676;2023-03-16T06:16:21;100610.44;;;9.50;100.00
71638;BME280;59485;43.542;-5.676;2023-03-16T06:18:47;100617.63;;;9.51;100.00
71638;BME280;59485;43.542;-5.676;2023-03-16T06:21:12;100619.31;;;9.52;100.00
71638;BME280;59485;43.542;-5.676;2023-03-16T06:23:37;100628.03;;;9.56;100.00
71638;BME280;59485;43.542;-5.676;2023-03-16T06:26:03;100622.16;;;9.59;100.00
71638;BME280;59485;43.542;-5.676;2023-03-16T06:28:29;100625.38;;;9.62;100.00
71638;BME280;59485;43.542;-5.676;2023-03-16T06:30:55;100625.66;;;9.67;100.00
71638;BME280;59485;43.542;-5.676;2023-03-16T06:33:21;100632.28;;;9.73;100.00
71638;BME280;59485;43.542;-5.676;2023-03-16T06:35:46;100633.88;;;9.82;100.00
71638;BME280;59485;43.542;-5.676;2023-03-16T06:38:15;100628.69;;;9.87;100.00
71638;BME280;59485;43.542;-5.676;2023-03-16T06:40:41;100622.66;;;9.92;100.00
71638;BME280;59485;43.542;-5.676;2023-03-16T06:43:06;100621.22;;;9.96;100.00
71638;BME280;59485;43.542;-5.676;2023-03-16T06:45:32;100629.50;;;10.02;100.00
71638;BME280;59485;43.542;-5.676;2023-03-16T06:47:57;100631.03;;;10.05;100.00
71638;BME280;59485;43.542;-5.676;2023-03-16T06:50:23;100630.84;;;10.06;100.00
71638;BME280;59485;43.542;-5.676;2023-03-16T06:52:48;100625.84;;;10.10;100.00
71638;BME280;59485;43.542;-5.676;2023-03-16T06:55:13;100628.66;;;10.16;100.00
71638;BME280;59485;43.542;-5.676;2023-03-16T06:57:39;100642.81;;;10.20;100.00
71638;BME280;59485;43.542;-5.676;2023-03-16T07:00:11;100637.81;;;10.24;100.00
71638;BME280;59485;43.542;-5.676;2023-03-16T07:02:39;100641.25;;;10.26;100.00
71638;BME280;59485;43.542;-5.676;2023-03-16T07:05:05;100641.91;;;10.28;100.00
71638;BME280;59485;43.542;-5.676;2023-03-16T07:07:31;100649.91;;;10.29;100.00
71638;BME280;59485;43.542;-5.676;2023-03-16T07:10:00;100658.97;;;10.30;100.00
71638;BME280;59485;43.542;-5.676;2023-03-16T07:12:25;100662.56;;;10.30;100.00
71638;BME280;59485;43.542;-5.676;2023-03-16T07:14:51;100653.13;;;10.33;100.00
71638;BME280;59485;43.542;-5.676;2023-03-16T07:17:16;100660.66;;;10.31;100.00
71638;BME280;59485;43.542;-5.676;2023-03-16T07:19:41;100672.78;;;10.36;100.00
71638;BME280;59485;43.542;-5.676;2023-03-16T07:22:07;100677.00;;;10.39;100.00
71638;BME280;59485;43.542;-5.676;2023-03-16T07:24:33;100675.41;;;10.44;100.00
71638;BME280;59485;43.542;-5.676;2023-03-16T07:26:58;100672.06;;;10.49;100.00
71638;BME280;59485;43.542;-5.676;2023-03-16T07:29:27;100679.91;;;10.52;100.00
71638;BME280;59485;43.542;-5.676;2023-03-16T07:31:52;100665.63;;;10.57;100.00
71638;BME280;59485;43.542;-5.676;2023-03-16T07:34:18;100669.69;;;10.61;100.00
71638;BME280;59485;43.542;-5.676;2023-03-16T07:36:43;100661.09;;;10.64;100.00
71638;BME280;59485;43.542;-5.676;2023-03-16T07:39:09;100675.06;;;10.69;100.00
71638;BME280;59485;43.542;-5.676;2023-03-16T07:41:38;100679.97;;;10.73;100.00
71638;BME280;59485;43.542;-5.676;2023-03-16T07:44:03;100690.16;;;10.79;100.00
71638;BME280;59485;43.542;-5.676;2023-03-16T07:46:29;100688.69;;;10.83;100.00
71638;BME280;59485;43.542;-5.676;2023-03-16T07:48:56;100688.13;;;10.88;100.00
71638;BME280;59485;43.542;-5.676;2023-03-16T07:51:21;100692.38;;;10.90;100.00
71638;BME280;59485;43.542;-5.676;2023-03-16T07:53:47;100690.94;;;10.95;100.00
71638;BME280;59485;43.542;-5.676;2023-03-16T07:56:12;100695.19;;;10.97;100.00
71638;BME280;59485;43.542;-5.676;2023-03-16T07:58:38;100681.28;;;10.99;100.00
71638;BME280;59485;43.542;-5.676;2023-03-16T08:01:03;100695.00;;;10.99;100.00
71638;BME280;59485;43.542;-5.676;2023-03-16T08:03:29;100680.03;;;11.01;100.00
71638;BME280;59485;43.542;-5.676;2023-03-16T08:05:55;100684.94;;;11.06;100.00
71638;BME280;59485;43.542;-5.676;2023-03-16T08:08:21;100687.31;;;11.09;100.00
71638;BME280;59485;43.542;-5.676;2023-03-16T08:10:50;100687.94;;;11.11;100.00
71638;BME280;59485;43.542;-5.676;2023-03-16T08:13:19;100689.91;;;12.76;100.00
71638;BME280;59485;43.542;-5.676;2023-03-16T08:15:48;100684.69;;;12.47;100.00
71638;BME280;59485;43.542;-5.676;2023-03-16T08:18:15;100679.88;;;12.62;100.00
71638;BME280;59485;43.542;-5.676;2023-03-16T08:20:40;100676.78;;;12.78;100.00
71638;BME280;59485;43.542;-5.676;2023-03-16T08:23:06;100683.56;;;12.89;100.00
71638;BME280;59485;43.542;-5.676;2023-03-16T08:25:32;100672.59;;;13.02;100.00
71638;BME280;59485;43.542;-5.676;2023-03-16T08:27:57;100673.91;;;13.12;100.00
71638;BME280;59485;43.542;-5.676;2023-03-16T08:30:23;100663.97;;;13.25;100.00
71638;BME280;59485;43.542;-5.676;2023-03-16T08:32:49;100674.50;;;14.07;100.00
71638;BME280;59485;43.542;-5.676;2023-03-16T08:35:15;100663.97;;;13.71;100.00
71638;BME280;59485;43.542;-5.676;2023-03-16T08:37:43;100666.97;;;13.23;100.00
71638;BME280;59485;43.542;-5.676;2023-03-16T08:40:10;100669.22;;;12.93;100.00
71638;BME280;59485;43.542;-5.676;2023-03-16T08:42:39;100675.94;;;12.77;100.00
71638;BME280;59485;43.542;-5.676;2023-03-16T08:45:05;100675.03;;;12.64;100.00
71638;BME280;59485;43.542;-5.676;2023-03-16T08:47:36;100688.13;;;12.55;100.00
71638;BME280;59485;43.542;-5.676;2023-03-16T08:50:03;100679.22;;;12.53;100.00
71638;BME280;59485;43.542;-5.676;2023-03-16T08:52:30;100684.91;;;12.45;100.00
71638;BME280;59485;43.542;-5.676;2023-03-16T08:54:55;100683.66;;;12.48;100.00
71638;BME280;59485;43.542;-5.676;2023-03-16T08:57:21;100686.00;;;12.51;100.00
71638;BME280;59485;43.542;-5.676;2023-03-16T08:59:46;100696.16;;;12.57;100.00
71638;BME280;59485;43.542;-5.676;2023-03-16T09:02:12;100691.97;;;12.61;100.00
71638;BME280;59485;43.542;-5.676;2023-03-16T09:04:38;100701.28;;;12.66;100.00
71638;BME280;59485;43.542;-5.676;2023-03-16T09:07:04;100699.59;;;12.72;100.00
71638;BME280;59485;43.542;-5.676;2023-03-16T09:09:29;100695.41;;;12.76;100.00
71638;BME280;59485;43.542;-5.676;2023-03-16T09:11:55;100696.25;;;12.83;100.00
71638;BME280;59485;43.542;-5.676;2023-03-16T09:14:21;100703.69;;;12.89;100.00
71638;BME280;59485;43.542;-5.676;2023-03-16T09:16:48;100698.00;;;12.97;100.00
71638;BME280;59485;43.542;-5.676;2023-03-16T09:19:13;100701.63;;;13.04;100.00
71638;BME280;59485;43.542;-5.676;2023-03-16T09:21:39;100700.56;;;13.12;100.00
71638;BME280;59485;43.542;-5.676;2023-03-16T09:24:04;100689.84;;;13.24;100.00
71638;BME280;59485;43.542;-5.676;2023-03-16T09:26:31;100688.78;;;13.31;100.00
71638;BME280;59485;43.542;-5.676;2023-03-16T09:28:57;100686.03;;;13.38;100.00
71638;BME280;59485;43.542;-5.676;2023-03-16T09:31:22;100686.88;;;13.45;100.00
71638;BME280;59485;43.542;-5.676;2023-03-16T09:33:48;100686.00;;;13.51;100.00
71638;BME280;59485;43.542;-5.676;2023-03-16T09:36:14;100676.91;;;13.57;100.00
71638;BME280;59485;43.542;-5.676;2023-03-16T09:38:39;100681.97;;;13.60;100.00
71638;BME280;59485;43.542;-5.676;2023-03-16T09:41:08;100672.03;;;13.72;100.00
71638;BME280;59485;43.542;-5.676;2023-03-16T09:43:46;100672.44;;;13.82;100.00
71638;BME280;59485;43.542;-5.676;2023-03-16T09:48:44;100673.25;;;13.96;100.00
71638;BME280;59485;43.542;-5.676;2023-03-16T09:53:56;100667.09;;;14.07;100.00
71638;BME280;59485;43.542;-5.676;2023-03-16T09:56:31;100666.47;;;14.12;100.00
71638;BME280;59485;43.542;-5.676;2023-03-16T09:58:59;100665.38;;;14.19;100.00
71638;BME280;59485;43.542;-5.676;2023-03-16T10:04:13;100667.44;;;14.37;100.00
71638;BME280;59485;43.542;-5.676;2023-03-16T10:06:53;100663.81;;;14.43;100.00
71638;BME280;59485;43.542;-5.676;2023-03-16T10:17:37;100653.66;;;14.82;100.00
71638;BME280;59485;43.542;-5.676;2023-03-16T10:20:10;100646.81;;;14.91;100.00
71638;BME280;59485;43.542;-5.676;2023-03-16T10:27:58;100635.75;;;15.22;100.00
71638;BME280;59485;43.542;-5.676;2023-03-16T10:32:49;100628.31;;;15.23;100.00
71638;BME280;59485;43.542;-5.676;2023-03-16T10:35:57;100630.84;;;15.24;100.00
71638;BME280;59485;43.542;-5.676;2023-03-16T10:40:31;100633.84;;;15.23;100.00
71638;BME280;59485;43.542;-5.676;2023-03-16T11:02:32;100642.56;;;14.88;100.00
71638;BME280;59485;43.542;-5.676;2023-03-16T11:10:11;100633.66;;;14.93;100.00
71638;BME280;59485;43.542;-5.676;2023-03-16T11:20:54;100644.97;;;14.78;100.00
71638;BME280;59485;43.542;-5.676;2023-03-16T11:23:21;100647.72;;;14.85;100.00
71638;BME280;59485;43.542;-5.676;2023-03-16T11:25:55;100644.31;;;14.83;100.00
71638;BME280;59485;43.542;-5.676;2023-03-16T11:41:12;100655.31;;;14.89;100.00
71638;BME280;59485;43.542;-5.676;2023-03-16T11:56:11;100645.59;;;14.80;100.00
71638;BME280;59485;43.542;-5.676;2023-03-16T12:04:17;100646.50;;;14.74;100.00
71638;BME280;59485;43.542;-5.676;2023-03-16T12:23:35;100634.00;;;15.03;100.00
71638;BME280;59485;43.542;-5.676;2023-03-16T12:26:20;100627.38;;;15.04;100.00
71638;BME280;59485;43.542;-5.676;2023-03-16T12:28:47;100623.97;;;15.09;100.00
71638;BME280;59485;43.542;-5.676;2023-03-16T12:39:06;100619.66;;;15.19;100.00
71638;BME280;59485;43.542;-5.676;2023-03-16T12:49:08;100598.72;;;15.05;100.00
71638;BME280;59485;43.542;-5.676;2023-03-16T12:56:27;100602.81;;;14.96;100.00
71638;BME280;59485;43.542;-5.676;2023-03-16T13:04:07;100614.44;;;15.05;100.00
71638;BME280;59485;43.542;-5.676;2023-03-16T13:06:34;100603.38;;;15.05;100.00
71638;BME280;59485;43.542;-5.676;2023-03-16T13:08:59;100600.88;;;15.03;100.00
71638;BME280;59485;43.542;-5.676;2023-03-16T13:11:26;100592.19;;;14.99;100.00
71638;BME280;59485;43.542;-5.676;2023-03-16T13:16:32;100576.97;;;14.90;100.00
71638;BME280;59485;43.542;-5.676;2023-03-16T13:24:21;100565.53;;;14.55;100.00
71638;BME280;59485;43.542;-5.676;2023-03-16T13:27:00;100572.22;;;14.28;100.00
71638;BME280;59485;43.542;-5.676;2023-03-16T13:29:28;100555.72;;;14.15;100.00
71638;BME280;59485;43.542;-5.676;2023-03-16T13:32:12;100561.97;;;14.04;100.00
71638;BME280;59485;43.542;-5.676;2023-03-16T13:37:34;100560.31;;;13.83;100.00
71638;BME280;59485;43.542;-5.676;2023-03-16T13:40:00;100572.19;;;13.83;100.00
71638;BME280;59485;43.542;-5.676;2023-03-16T13:42:29;100558.00;;;13.80;100.00
71638;BME280;59485;43.542;-5.676;2023-03-16T13:44:56;100564.00;;;13.57;100.00
71638;BME280;59485;43.542;-5.676;2023-03-16T13:47:23;100565.06;;;13.43;100.00
71638;BME280;59485;43.542;-5.676;2023-03-16T13:49:54;100559.81;;;13.28;100.00
71638;BME280;59485;43.542;-5.676;2023-03-16T13:52:27;100564.03;;;13.18;100.00
71638;BME280;59485;43.542;-5.676;2023-03-16T13:54:53;100559.63;;;13.23;100.00
71638;BME280;59485;43.542;-5.676;2023-03-16T14:00:15;100550.28;;;13.18;100.00
71638;BME280;59485;43.542;-5.676;2023-03-16T14:02:43;100548.38;;;13.18;100.00
71638;BME280;59485;43.542;-5.676;2023-03-16T14:05:28;100542.25;;;13.23;100.00
71638;BME280;59485;43.542;-5.676;2023-03-16T14:07:54;100544.38;;;13.21;100.00
71638;BME280;59485;43.542;-5.676;2023-03-16T14:10:21;100544.16;;;13.22;100.00
71638;BME280;59485;43.542;-5.676;2023-03-16T14:12:54;100547.97;;;13.14;100.00
71638;BME280;59485;43.542;-5.676;2023-03-16T14:15:20;100546.03;;;13.08;100.00
71638;BME280;59485;43.542;-5.676;2023-03-16T14:17:46;100546.66;;;13.10;100.00
71638;BME280;59485;43.542;-5.676;2023-03-16T14:20:19;100543.53;;;13.13;100.00
71638;BME280;59485;43.542;-5.676;2023-03-16T14:22:45;100539.28;;;13.18;100.00
71638;BME280;59485;43.542;-5.676;2023-03-16T14:25:16;100535.06;;;13.22;100.00
71638;BME280;59485;43.542;-5.676;2023-03-16T14:27:43;100518.72;;;13.27;100.00
71638;BME280;59485;43.542;-5.676;2023-03-16T14:32:54;100513.44;;;13.25;100.00
71638;BME280;59485;43.542;-5.676;2023-03-16T14:35:29;100509.41;;;13.28;100.00
71638;BME280;59485;43.542;-5.676;2023-03-16T14:40:50;100516.81;;;13.27;100.00
71638;BME280;59485;43.542;-5.676;2023-03-16T14:43:16;100511.53;;;13.26;100.00
71638;BME280;59485;43.542;-5.676;2023-03-16T14:45:42;100508.16;;;13.24;100.00
71638;BME280;59485;43.542;-5.676;2023-03-16T14:48:14;100505.41;;;13.17;100.00
71638;BME280;59485;43.542;-5.676;2023-03-16T14:50:44;100515.34;;;13.05;100.00
71638;BME280;59485;43.542;-5.676;2023-03-16T14:53:09;100508.78;;;13.06;100.00
71638;BME280;59485;43.542;-5.676;2023-03-16T14:55:35;100500.53;;;12.93;100.00
71638;BME280;59485;43.542;-5.676;2023-03-16T14:58:01;100506.69;;;12.88;100.00
71638;BME280;59485;43.542;-5.676;2023-03-16T15:00:27;100510.91;;;12.91;100.00
71638;BME280;59485;43.542;-5.676;2023-03-16T15:02:57;100512.19;;;12.95;100.00
71638;BME280;59485;43.542;-5.676;2023-03-16T15:05:27;100503.72;;;12.96;100.00
71638;BME280;59485;43.542;-5.676;2023-03-16T15:07:54;100495.22;;;12.98;100.00
71638;BME280;59485;43.542;-5.676;2023-03-16T15:10:23;100505.41;;;13.04;100.00
71638;BME280;59485;43.542;-5.676;2023-03-16T15:12:50;100492.88;;;13.08;100.00
71638;BME280;59485;43.542;-5.676;2023-03-16T15:15:23;100482.72;;;13.08;100.00
71638;BME280;59485;43.542;-5.676;2023-03-16T15:17:51;100475.16;;;12.97;100.00
71638;BME280;59485;43.542;-5.676;2023-03-16T15:20:17;100472.78;;;13.01;100.00
71638;BME280;59485;43.542;-5.676;2023-03-16T15:22:44;100479.56;;;13.11;100.00
71638;BME280;59485;43.542;-5.676;2023-03-16T15:25:21;100474.25;;;13.10;100.00
71638;BME280;59485;43.542;-5.676;2023-03-16T15:27:47;100477.88;;;13.10;100.00
71638;BME280;59485;43.542;-5.676;2023-03-16T15:30:17;100463.72;;;13.13;100.00
71638;BME280;59485;43.542;-5.676;2023-03-16T15:32:43;100459.25;;;13.19;100.00
71638;BME280;59485;43.542;-5.676;2023-03-16T15:35:08;100457.75;;;13.17;100.00
71638;BME280;59485;43.542;-5.676;2023-03-16T15:37:33;100452.47;;;13.08;100.00
71638;BME280;59485;43.542;-5.676;2023-03-16T15:39:59;100447.19;;;13.00;100.00
71638;BME280;59485;43.542;-5.676;2023-03-16T15:42:24;100438.53;;;12.97;100.00